Time;durP1;ratioP1;P1;durP2;ratioP2;P2;SDS_P1;SDS_P2;PMS_P1;PMS_P2;Temp;Humidity;BMP_temperature;BMP_pressure;BME280_temperature;BME280_humidity;BME280_pressure;Samples;Min_cycle;Max_cycle;Signal;HPM_P1;HPM_P2
2023/03/02 00:01:53;;;;;;;6.40;4.20;;;;;;;9.07;52.02;100132.10;104880;1266;61729;-64
2023/03/02 00:04:22;;;;;;;7.70;4.40;;;;;;;9.08;52.11;100127.18;105037;1250;61707;-64
2023/03/02 00:06:57;;;;;;;7.20;3.80;;;;;;;9.14;51.92;100132.59;104725;1254;72927;-63
2023/03/02 00:09:26;;;;;;;7.00;4.00;;;;;;;9.17;51.75;100130.44;104656;1250;69310;-65
2023/03/02 00:11:55;;;;;;;5.40;3.80;;;;;;;9.18;51.50;100127.96;108318;1249;71843;-68
2023/03/02 00:14:24;;;;;;;6.60;3.50;;;;;;;9.21;51.28;100122.79;106286;1250;61707;-65
2023/03/02 00:16:52;;;;;;;6.00;3.40;;;;;;;9.10;51.66;100123.83;105079;1253;61662;-64
2023/03/02 00:19:21;;;;;;;5.20;3.50;;;;;;;9.11;51.92;100125.35;105329;1250;73529;-64
2023/03/02 00:21:50;;;;;;;5.90;3.80;;;;;;;9.13;51.86;100124.74;104913;1272;68164;-63
2023/03/02 00:24:18;;;;;;;6.10;3.70;;;;;;;9.20;51.58;100123.89;105151;1254;72186;-62
2023/03/02 00:26:47;;;;;;;6.30;3.50;;;;;;;9.26;51.23;100117.38;105004;1254;61598;-62
2023/03/02 00:29:15;;;;;;;3.80;3.10;;;;;;;9.28;50.75;100115.40;105058;1264;61592;-62
2023/03/02 00:31:43;;;;;;;6.40;3.30;;;;;;;9.16;50.74;100112.79;104965;1253;74213;-69
2023/03/02 00:34:12;;;;;;;5.30;3.10;;;;;;;9.21;50.74;100112.63;105150;1250;68376;-67
2023/03/02 00:36:40;;;;;;;4.00;2.80;;;;;;;9.26;50.26;100105.66;105080;1250;71756;-64
2023/03/02 00:39:09;;;;;;;5.50;3.10;;;;;;;9.27;50.12;100105.46;104908;1250;61714;-63
2023/03/02 00:41:37;;;;;;;5.80;2.90;;;;;;;9.25;50.01;100108.84;104986;1266;61730;-65
2023/03/02 00:44:06;;;;;;;5.80;3.50;;;;;;;9.24;50.06;100106.61;104961;1253;72745;-64
2023/03/02 00:46:35;;;;;;;3.60;2.90;;;;;;;9.15;49.75;100108.80;104950;1252;69535;-65
2023/03/02 00:49:04;;;;;;;7.40;3.60;;;;;;;8.93;50.37;100106.98;105076;1250;71091;-64
2023/03/02 00:51:32;;;;;;;7.70;3.20;;;;;;;8.93;50.36;100106.65;104686;1267;61717;-65
2023/03/02 00:54:03;;;;;;;5.10;3.00;;;;;;;8.94;50.33;100101.88;105001;1251;61990;-64
2023/03/02 00:56:34;;;;;;;7.00;3.10;;;;;;;8.99;50.26;100101.55;104951;1253;73887;-64
2023/03/02 00:59:04;;;;;;;6.80;3.30;;;;;;;8.92;50.33;100096.86;104875;1254;68761;-63
2023/03/02 01:01:36;;;;;;;4.20;3.50;;;;;;;8.82;50.75;100098.04;105143;1250;71958;-64
2023/03/02 01:04:05;;;;;;;4.80;3.00;;;;;;;8.85;51.01;100098.83;104693;1249;61717;-65
2023/03/02 01:06:34;;;;;;;4.80;3.00;;;;;;;8.84;51.00;100102.52;104656;1266;61566;-64
2023/03/02 01:09:02;;;;;;;8.00;3.50;;;;;;;8.88;51.05;100101.70;104965;1253;74405;-65
2023/03/02 01:11:32;;;;;;;6.90;3.50;;;;;;;8.87;51.01;100099.63;104951;1249;67852;-65
2023/03/02 01:14:01;;;;;;;9.00;3.70;;;;;;;8.85;50.98;100098.48;104669;1260;71560;-64
2023/03/02 01:16:29;;;;;;;6.50;3.20;;;;;;;8.92;50.87;100098.62;104996;1250;61615;-64
2023/03/02 01:18:59;;;;;;;6.00;3.40;;;;;;;8.97;50.59;100095.86;104714;1257;61783;-64
2023/03/02 01:21:28;;;;;;;5.70;3.40;;;;;;;8.88;50.55;100094.19;104937;1250;72262;-64
2023/03/02 01:23:56;;;;;;;6.90;3.50;;;;;;;8.78;50.74;100087.66;105218;1260;67877;-65
2023/03/02 01:26:25;;;;;;;6.20;4.00;;;;;;;8.68;50.53;100086.17;105037;1249;71585;-64
2023/03/02 01:28:54;;;;;;;4.70;3.40;;;;;;;8.66;50.78;100083.95;104995;1249;61720;-64
2023/03/02 01:31:23;;;;;;;6.00;3.40;;;;;;;8.72;50.64;100082.23;104991;1260;61113;-66
2023/03/02 01:33:52;;;;;;;4.90;3.10;;;;;;;8.67;50.50;100081.16;105055;1257;72846;-64
2023/03/02 01:36:21;;;;;;;5.50;3.60;;;;;;;8.75;50.37;100080.41;104992;1270;68494;-66
2023/03/02 01:38:50;;;;;;;6.00;3.70;;;;;;;8.66;50.05;100074.55;105049;1251;72243;-64
2023/03/02 01:41:18;;;;;;;6.20;3.70;;;;;;;8.60;50.02;100072.07;104595;1272;61691;-64
2023/03/02 01:43:47;;;;;;;6.30;3.40;;;;;;;8.65;50.16;100072.11;104692;1272;61682;-64
2023/03/02 01:46:23;;;;;;;5.60;3.70;;;;;;;8.65;50.15;100067.94;105120;1260;73434;-64
2023/03/02 01:49:01;;;;;;;8.60;3.60;;;;;;;8.54;50.29;100066.13;104593;1251;68593;-65
2023/03/02 01:51:53;;;;;;;6.80;3.40;;;;;;;8.47;50.66;100068.23;104915;1253;71932;-64
2023/03/02 01:54:22;;;;;;;5.70;3.70;;;;;;;8.41;50.85;100071.17;104963;1250;61619;-67
2023/03/02 01:56:57;;;;;;;5.30;3.40;;;;;;;8.30;51.17;100069.36;104573;1253;61689;-65
2023/03/02 01:59:27;;;;;;;4.90;3.60;;;;;;;8.24;51.80;100067.95;104596;1256;73239;-65
2023/03/02 02:01:55;;;;;;;8.30;4.30;;;;;;;8.27;51.25;100066.66;104703;1257;68481;-66
2023/03/02 02:04:26;;;;;;;5.90;3.40;;;;;;;8.24;51.29;100069.52;104587;1251;73254;-64
2023/03/02 02:07:00;;;;;;;6.70;3.70;;;;;;;8.22;51.17;100068.88;104663;1254;61722;-65
2023/03/02 02:09:38;;;;;;;6.00;3.80;;;;;;;8.26;51.46;100065.98;104588;1268;61580;-65
2023/03/02 02:12:17;;;;;;;4.30;3.40;;;;;;;8.30;51.03;100062.73;104569;1264;73262;-64
2023/03/02 02:14:46;;;;;;;5.50;3.20;;;;;;;8.31;51.17;100062.19;104575;1256;68076;-65
2023/03/02 02:17:17;;;;;;;5.00;3.20;;;;;;;8.08;51.66;100057.20;104663;1264;71350;-66
2023/03/02 02:20:05;;;;;;;5.20;3.20;;;;;;;8.20;51.13;100055.13;104573;1257;61593;-64
2023/03/02 02:22:43;;;;;;;6.30;3.40;;;;;;;8.13;51.31;100056.18;104486;1272;61692;-64
2023/03/02 02:25:32;;;;;;;5.60;3.20;;;;;;;8.16;51.21;100055.24;104711;1256;73422;-67
2023/03/02 02:28:08;;;;;;;6.20;3.20;;;;;;;8.19;50.94;100055.33;104635;1256;69290;-66
2023/03/02 02:30:37;;;;;;;4.90;3.10;;;;;;;8.15;51.20;100051.77;104559;1253;72988;-66
2023/03/02 02:33:05;;;;;;;5.70;3.30;;;;;;;8.20;51.04;100054.63;104602;1254;61570;-65
2023/03/02 02:35:35;;;;;;;3.90;3.00;;;;;;;8.16;50.81;100055.77;107187;1253;61644;-64
2023/03/02 02:38:05;;;;;;;5.10;3.20;;;;;;;8.10;50.97;100054.86;105218;1253;72864;-64
2023/03/02 02:40:41;;;;;;;4.30;2.90;;;;;;;8.10;51.08;100062.40;104592;1252;69125;-65
2023/03/02 02:43:12;;;;;;;4.80;3.20;;;;;;;8.15;50.54;100058.92;104604;1251;70666;-66
2023/03/02 02:45:41;;;;;;;6.40;3.90;;;;;;;8.17;50.37;100058.18;104481;1251;61721;-65
2023/03/02 02:48:14;;;;;;;3.40;2.60;;;;;;;8.16;49.88;100061.52;104642;1252;61685;-66
2023/03/02 02:50:43;;;;;;;4.50;2.90;;;;;;;8.14;50.41;100061.40;104658;1256;73013;-63
2023/03/02 02:53:23;;;;;;;5.20;2.60;;;;;;;8.12;50.05;100057.10;104511;1269;68023;-64
2023/03/02 02:55:53;;;;;;;5.10;2.90;;;;;;;8.12;50.07;100055.52;104611;1251;72586;-64
2023/03/02 02:58:34;;;;;;;4.00;2.90;;;;;;;8.08;49.60;100057.02;104784;1253;61682;-64
2023/03/02 03:01:04;;;;;;;5.60;3.20;;;;;;;8.08;49.99;100049.15;104789;1250;61687;-64
2023/03/02 03:03:36;;;;;;;4.70;2.70;;;;;;;8.07;49.97;100049.19;105186;1264;73202;-64
2023/03/02 03:06:13;;;;;;;3.40;2.80;;;;;;;8.09;49.44;100045.82;108861;1250;68825;-65
2023/03/02 03:08:44;;;;;;;3.20;2.60;;;;;;;8.09;49.39;100046.34;105400;1250;72020;-65
2023/03/02 03:11:22;;;;;;;;;;;;;;;8.13;49.03;100048.33;104786;1251;61654;-65
2023/03/02 03:14:07;;;;;;;5.30;2.30;;;;;;;8.14;49.00;100048.14;104835;1252;61689;-64
2023/03/02 03:16:38;;;;;;;3.60;2.70;;;;;;;8.12;48.79;100053.95;105367;1250;71986;-64
2023/03/02 03:19:25;;;;;;;6.20;2.70;;;;;;;8.17;48.53;100054.52;108115;1250;68295;-64
2023/03/02 03:21:55;;;;;;;2.50;2.10;;;;;;;8.16;48.78;100052.12;104828;1257;72272;-65
2023/03/02 03:24:25;;;;;;;2.90;2.20;;;;;;;8.18;48.08;100054.82;104738;1251;61701;-65
2023/03/02 03:26:54;;;;;;;4.60;2.40;;;;;;;8.19;48.03;100057.78;104755;1256;61691;-64
2023/03/02 03:29:24;;;;;;;2.60;2.20;;;;;;;8.21;47.92;100060.17;104737;1254;72573;-64
2023/03/02 03:31:55;;;;;;;3.90;2.50;;;;;;;8.23;47.86;100060.81;104891;1253;68181;-66
2023/03/02 03:34:28;;;;;;;5.90;2.70;;;;;;;8.25;47.75;100057.61;104574;1263;72415;-66
2023/03/02 03:37:00;;;;;;;5.10;2.80;;;;;;;8.27;47.46;100059.50;104745;1257;61694;-64
2023/03/02 03:39:32;;;;;;;4.10;2.20;;;;;;;8.28;47.58;100062.63;104876;1251;62060;-63
2023/03/02 03:42:01;;;;;;;6.80;2.70;;;;;;;8.27;47.55;100056.69;104857;1252;73474;-64
2023/03/02 03:44:29;;;;;;;2.70;2.20;;;;;;;8.24;47.70;100056.61;104703;1257;70086;-71
2023/03/02 03:46:58;;;;;;;4.00;2.80;;;;;;;8.27;47.42;100060.20;104830;1254;73746;-64
2023/03/02 03:49:27;;;;;;;5.40;2.50;;;;;;;8.28;47.21;100060.34;104615;1250;61695;-64
2023/03/02 03:51:55;;;;;;;5.80;2.40;;;;;;;8.23;46.82;100059.60;104944;1257;62057;-64
2023/03/02 03:54:24;;;;;;;4.40;3.00;;;;;;;8.19;47.48;100056.57;104629;1263;73457;-65
2023/03/02 03:56:53;;;;;;;2.60;2.00;;;;;;;8.25;47.22;100054.13;104660;1251;69662;-65
2023/03/02 03:59:23;;;;;;;5.70;2.70;;;;;;;8.27;47.01;100051.81;104626;1250;72296;-65
2023/03/02 04:01:58;;;;;;;4.60;2.80;;;;;;;8.21;47.05;100050.92;104618;1256;61748;-65
2023/03/02 04:04:41;;;;;;;4.20;2.50;;;;;;;8.18;47.47;100052.92;104690;1252;61712;-64
2023/03/02 04:07:15;;;;;;;5.50;2.60;;;;;;;8.19;47.52;100045.73;104613;1259;74574;-63
2023/03/02 04:09:46;;;;;;;4.30;2.70;;;;;;;8.21;47.54;100048.12;104583;1251;68443;-63
2023/03/02 04:12:20;;;;;;;6.30;3.40;;;;;;;8.21;47.71;100041.67;106315;1250;71879;-65
2023/03/02 04:14:52;;;;;;;3.80;2.90;;;;;;;8.17;47.83;100041.77;108808;1250;59951;-65
2023/03/02 04:17:21;;;;;;;6.00;3.10;;;;;;;8.17;47.94;100042.30;105674;1254;61726;-66
2023/03/02 04:19:51;;;;;;;6.70;3.40;;;;;;;7.99;48.60;100045.36;104649;1250;72784;-64
2023/03/02 04:22:20;;;;;;;5.60;2.70;;;;;;;7.99;49.01;100043.80;104822;1256;69036;-65
2023/03/02 04:24:49;;;;;;;5.90;3.00;;;;;;;7.95;49.07;100046.52;104878;1251;71648;-64
2023/03/02 04:27:17;;;;;;;6.30;2.70;;;;;;;7.96;49.86;100045.27;104717;1262;61811;-64
2023/03/02 04:29:47;;;;;;;4.80;3.00;;;;;;;8.02;49.37;100044.62;104715;1256;61711;-65
2023/03/02 04:32:16;;;;;;;8.20;2.90;;;;;;;7.91;49.69;100046.80;104665;1255;72697;-64
2023/03/02 04:34:48;;;;;;;4.80;2.40;;;;;;;7.98;49.83;100042.41;104618;1262;68736;-63
2023/03/02 04:37:16;;;;;;;6.00;2.90;;;;;;;7.98;49.64;100043.63;104660;1256;72231;-65
2023/03/02 04:39:48;;;;;;;5.40;3.00;;;;;;;8.01;49.62;100047.79;104460;1272;61701;-65
2023/03/02 04:42:19;;;;;;;8.80;3.10;;;;;;;7.96;50.07;100049.64;104635;1253;61688;-64
2023/03/02 04:44:48;;;;;;;4.30;3.10;;;;;;;7.99;49.52;100053.40;104688;1255;74449;-64
2023/03/02 04:47:16;;;;;;;5.90;3.30;;;;;;;7.99;49.55;100056.73;104605;1251;67894;-64
2023/03/02 04:49:46;;;;;;;6.40;3.00;;;;;;;7.98;49.89;100060.25;104593;1253;71499;-64
2023/03/02 04:52:16;;;;;;;5.30;3.10;;;;;;;7.92;50.52;100063.19;104757;1250;61689;-65
2023/03/02 04:54:45;;;;;;;4.70;3.30;;;;;;;7.82;50.51;100062.56;104702;1266;61663;-66
2023/03/02 04:57:14;;;;;;;5.70;3.60;;;;;;;7.87;50.88;100064.54;104872;1249;72400;-65
2023/03/02 04:59:42;;;;;;;4.90;3.20;;;;;;;7.94;50.89;100066.64;105038;1266;69219;-65
2023/03/02 05:02:11;;;;;;;7.70;3.80;;;;;;;7.94;50.78;100068.03;105003;1251;72266;-66
2023/03/02 05:04:40;;;;;;;6.20;3.30;;;;;;;7.95;50.92;100068.36;105170;1253;61772;-65
2023/03/02 05:07:09;;;;;;;5.70;3.70;;;;;;;8.06;50.93;100072.78;105090;1253;61649;-65
2023/03/02 05:09:42;;;;;;;7.00;3.70;;;;;;;8.02;51.34;100076.73;105190;1261;73036;-67
2023/03/02 05:12:11;;;;;;;4.90;3.60;;;;;;;8.00;51.56;100079.40;105015;1267;70290;-62
2023/03/02 05:14:39;;;;;;;7.00;3.70;;;;;;;8.05;51.36;100081.20;105093;1251;72357;-69
2023/03/02 05:17:08;;;;;;;4.10;3.40;;;;;;;8.11;51.24;100079.11;104998;1250;61615;-69
2023/03/02 05:19:37;;;;;;;8.10;3.80;;;;;;;8.11;51.64;100076.48;104780;1269;61699;-63
2023/03/02 05:22:06;;;;;;;8.80;4.20;;;;;;;8.13;51.69;100078.02;105197;1250;74422;-63
2023/03/02 05:24:35;;;;;;;6.50;3.80;;;;;;;8.20;51.66;100077.66;105005;1250;70601;-62
2023/03/02 05:27:04;;;;;;;6.00;3.10;;;;;;;8.26;51.39;100080.83;105048;1249;72485;-63
2023/03/02 05:29:33;;;;;;;6.90;3.50;;;;;;;8.17;52.45;100082.09;104869;1253;61697;-62
2023/03/02 05:32:01;;;;;;;5.90;3.60;;;;;;;8.16;52.84;100081.77;104995;1253;61681;-62
2023/03/02 05:34:32;;;;;;;5.80;3.10;;;;;;;8.23;52.88;100084.73;105072;1260;72668;-63
2023/03/02 05:37:00;;;;;;;5.80;2.70;;;;;;;8.31;52.59;100089.07;104999;1250;69431;-63
2023/03/02 05:39:31;;;;;;;6.10;3.20;;;;;;;8.35;53.40;100085.51;104979;1253;72311;-62
2023/03/02 05:42:00;;;;;;;5.00;2.90;;;;;;;8.47;52.57;100088.51;104994;1266;61698;-63
2023/03/02 05:44:28;;;;;;;5.90;2.50;;;;;;;8.57;52.77;100090.68;104999;1263;61695;-63
2023/03/02 05:46:57;;;;;;;4.70;2.70;;;;;;;8.51;52.71;100093.10;105057;1261;72033;-63
2023/03/02 05:49:25;;;;;;;5.80;2.90;;;;;;;8.47;53.20;100094.62;105029;1251;68127;-62
2023/03/02 05:51:56;;;;;;;6.50;3.10;;;;;;;8.54;53.46;100096.20;104902;1253;71631;-62
2023/03/02 05:54:24;;;;;;;6.20;3.20;;;;;;;8.57;53.32;100105.18;104982;1265;61698;-62
2023/03/02 05:56:55;;;;;;;4.10;2.70;;;;;;;8.54;53.79;100105.96;105085;1253;61604;-62
2023/03/02 05:59:23;;;;;;;5.50;3.40;;;;;;;8.69;53.51;100106.08;105121;1265;72256;-62
2023/03/02 06:01:57;;;;;;;8.40;3.60;;;;;;;8.70;53.53;100101.52;104973;1253;70221;-62
2023/03/02 06:04:26;;;;;;;5.80;3.20;;;;;;;8.75;53.59;100099.45;105199;1253;72839;-62
2023/03/02 06:06:55;;;;;;;5.30;3.50;;;;;;;8.80;53.42;100100.17;105019;1253;61642;-68
2023/03/02 06:09:23;;;;;;;6.40;3.70;;;;;;;8.86;53.51;100101.24;105108;1253;61682;-63
2023/03/02 06:13:28;;;;;;;6.30;3.40;;;;;;;7.91;65.94;100106.46;102067;1291;599923;-68
2023/03/02 06:15:57;;;;;;;5.50;3.60;;;;;;;8.93;55.68;100103.66;104181;1264;60813;-72
2023/03/02 06:18:26;;;;;;;7.40;4.10;;;;;;;9.02;55.51;100098.50;104334;1266;60738;-67
2023/03/02 06:20:55;;;;;;;8.30;4.00;;;;;;;9.12;55.06;100099.96;104255;1263;72306;-68
2023/03/02 06:23:23;;;;;;;5.70;3.50;;;;;;;9.10;55.17;100095.81;104347;1263;69951;-68
2023/03/02 06:25:52;;;;;;;5.90;3.90;;;;;;;9.11;55.10;100099.47;104157;1271;71133;-68
2023/03/02 06:28:21;;;;;;;8.90;4.10;;;;;;;9.17;55.10;100097.55;103926;1274;60365;-72
2023/03/02 06:30:49;;;;;;;8.20;3.80;;;;;;;9.19;55.11;100097.31;104243;1266;60475;-71
2023/03/02 06:33:20;;;;;;;6.50;3.60;;;;;;;9.23;55.37;100097.20;104217;1263;71185;-67
2023/03/02 06:35:49;;;;;;;5.30;3.60;;;;;;;9.27;55.39;100096.37;104171;1267;69130;-67
2023/03/02 06:38:18;;;;;;;8.70;4.10;;;;;;;9.27;55.35;100093.91;104139;1260;73325;-68
2023/03/02 06:40:46;;;;;;;7.00;3.40;;;;;;;9.35;55.06;100103.13;104225;1260;60815;-67
2023/03/02 06:43:15;;;;;;;5.30;3.50;;;;;;;9.35;55.28;100101.89;104343;1264;60948;-67
2023/03/02 06:45:44;;;;;;;7.80;3.60;;;;;;;9.45;55.14;100101.95;104437;1263;71493;-70
2023/03/02 06:48:12;;;;;;;6.40;3.80;;;;;;;9.50;55.09;100104.59;104386;1263;68466;-70
2023/03/02 06:50:41;;;;;;;6.30;3.50;;;;;;;9.49;54.77;100103.56;104209;1261;70996;-65
2023/03/02 06:53:11;;;;;;;8.10;3.60;;;;;;;9.63;54.80;100099.13;104335;1265;60876;-67
2023/03/02 06:55:39;;;;;;;7.50;3.70;;;;;;;9.69;54.29;100098.91;104136;1263;61230;-68
2023/03/02 06:58:12;;;;;;;5.40;3.30;;;;;;;9.73;53.68;100099.32;104253;1267;73617;-70
2023/03/02 07:00:40;;;;;;;4.20;3.00;;;;;;;9.87;53.09;100093.44;104345;1262;70443;-69
2023/03/02 07:03:11;;;;;;;6.60;3.60;;;;;;;9.99;51.94;100100.40;104526;1265;73016;-70
2023/03/02 07:05:40;;;;;;;6.50;3.80;;;;;;;9.96;52.14;100098.39;104179;1272;61327;-70
2023/03/02 07:08:13;;;;;;;6.20;4.10;;;;;;;10.01;52.18;100097.37;104225;1264;60741;-68
2023/03/02 07:10:42;;;;;;;6.80;3.50;;;;;;;10.03;51.83;100093.27;104298;1266;72626;-70
2023/03/02 07:13:10;;;;;;;6.40;3.00;;;;;;;10.08;51.45;100093.63;104259;1260;69066;-70
2023/03/02 07:15:44;;;;;;;6.30;3.70;;;;;;;10.24;50.77;100090.27;104098;1272;72800;-66
2023/03/02 07:18:12;;;;;;;6.60;3.60;;;;;;;10.24;50.01;100086.26;104237;1272;60911;-67
2023/03/02 07:20:40;;;;;;;7.70;3.50;;;;;;;10.34;49.13;100085.59;104308;1260;60885;-68
2023/03/02 07:23:09;;;;;;;7.30;3.50;;;;;;;10.35;49.78;100086.23;104232;1272;73387;-65
2023/03/02 07:25:37;;;;;;;4.90;2.90;;;;;;;10.51;48.91;100084.11;104325;1265;67722;-68
2023/03/02 07:28:06;;;;;;;5.20;2.90;;;;;;;10.59;47.66;100093.14;104269;1261;73013;-69
2023/03/02 07:30:35;;;;;;;4.30;2.90;;;;;;;10.71;47.09;100086.73;104193;1272;60868;-70
2023/03/02 07:33:03;;;;;;;4.20;3.30;;;;;;;10.86;47.61;100085.15;104462;1266;60789;-67
2023/03/02 07:35:32;;;;;;;6.40;3.30;;;;;;;10.90;47.56;100084.45;104269;1259;73084;-69
2023/03/02 07:38:01;;;;;;;4.50;2.90;;;;;;;10.89;47.60;100084.31;104266;1263;69976;-67
2023/03/02 07:40:31;;;;;;;5.40;3.10;;;;;;;10.96;46.72;100082.14;104275;1282;72912;-69
2023/03/02 07:42:59;;;;;;;7.20;3.60;;;;;;;10.91;45.97;100080.73;104240;1276;60889;-69
2023/03/02 07:45:29;;;;;;;9.60;3.60;;;;;;;10.98;46.55;100082.55;104225;1265;60776;-67
2023/03/02 07:47:58;;;;;;;9.90;3.30;;;;;;;11.14;46.40;100084.45;104432;1263;72148;-69
2023/03/02 07:50:27;;;;;;;6.50;3.50;;;;;;;11.06;46.44;100084.20;104441;1263;69801;-70
2023/03/02 07:52:55;;;;;;;6.10;3.40;;;;;;;11.28;46.38;100084.42;104779;1257;72442;-69
2023/03/02 07:55:27;;;;;;;5.60;2.80;;;;;;;11.44;46.05;100078.52;104681;1259;60762;-70
2023/03/02 07:57:56;;;;;;;6.70;3.20;;;;;;;11.54;44.77;100076.77;104640;1263;60933;-68
2023/03/02 08:00:25;;;;;;;6.50;3.50;;;;;;;11.58;44.80;100074.67;104815;1259;72589;-71
2023/03/02 08:02:53;;;;;;;7.00;3.30;;;;;;;11.68;44.41;100074.08;104872;1259;68903;-70
2023/03/02 08:05:27;;;;;;;4.90;3.00;;;;;;;11.77;44.16;100073.53;104485;1255;73170;-72
2023/03/02 08:07:56;;;;;;;6.30;3.20;;;;;;;11.86;43.60;100070.38;104574;1275;60902;-71
2023/03/02 08:10:25;;;;;;;5.40;3.10;;;;;;;11.99;43.75;100068.46;104703;1257;60764;-71
2023/03/02 08:12:53;;;;;;;4.70;2.50;;;;;;;11.96;43.71;100064.16;104665;1259;72665;-70
2023/03/02 08:15:22;;;;;;;4.90;3.40;;;;;;;12.05;42.80;100058.73;104651;1256;70363;-72
2023/03/02 08:17:51;;;;;;;5.30;3.50;;;;;;;12.05;42.95;100056.23;104828;1261;72538;-71
2023/03/02 08:20:20;;;;;;;9.20;3.60;;;;;;;12.20;42.70;100054.05;105068;1254;60799;-71
2023/03/02 08:22:51;;;;;;;9.70;3.60;;;;;;;12.34;41.67;100052.89;104813;1264;62245;-70
2023/03/02 08:25:19;;;;;;;5.00;3.50;;;;;;;12.47;42.11;100045.66;104705;1261;74153;-70
2023/03/02 08:27:47;;;;;;;4.10;3.00;;;;;;;12.56;41.47;100047.18;104892;1257;70272;-70
2023/03/02 08:30:21;;;;;;;5.50;3.20;;;;;;;12.54;41.73;100050.96;104904;1259;72227;-71
2023/03/02 08:32:49;;;;;;;5.20;3.30;;;;;;;12.44;41.77;100053.35;104769;1267;60763;-72
2023/03/02 08:35:18;;;;;;;5.60;3.40;;;;;;;12.51;41.83;100054.27;104877;1258;60789;-71
2023/03/02 08:37:47;;;;;;;7.10;3.70;;;;;;;12.70;40.51;100051.86;104758;1254;71805;-71
2023/03/02 08:40:17;;;;;;;7.40;3.50;;;;;;;12.86;41.01;100049.89;104993;1257;69108;-71
2023/03/02 08:42:45;;;;;;;6.30;4.00;;;;;;;12.91;40.34;100049.85;104786;1259;71888;-72
2023/03/02 08:45:20;;;;;;;6.20;4.10;;;;;;;12.85;40.58;100049.92;104808;1264;60880;-70
2023/03/02 08:47:51;;;;;;;7.00;3.90;;;;;;;12.79;40.85;100051.25;105096;1259;60869;-69
2023/03/02 08:50:20;;;;;;;6.00;3.40;;;;;;;12.99;40.31;100043.66;104750;1256;73765;-71
2023/03/02 08:52:50;;;;;;;4.60;2.80;;;;;;;13.12;40.47;100042.16;104988;1260;68314;-67
2023/03/02 08:55:20;;;;;;;8.40;3.50;;;;;;;13.15;39.17;100043.29;104825;1257;72588;-68
2023/03/02 08:57:49;;;;;;;6.10;2.80;;;;;;;13.16;39.57;100047.10;104883;1255;60878;-68
2023/03/02 09:00:18;;;;;;;5.60;3.70;;;;;;;13.10;39.73;100041.23;104816;1270;60891;-68
2023/03/02 09:02:46;;;;;;;5.10;3.60;;;;;;;13.01;40.37;100043.56;104765;1260;72731;-68
2023/03/02 09:05:15;;;;;;;6.40;3.20;;;;;;;13.14;40.23;100041.20;104697;1259;69164;-70
2023/03/02 09:07:44;;;;;;;4.40;3.40;;;;;;;13.10;39.50;100040.49;105327;1254;72020;-68
2023/03/02 09:10:16;;;;;;;7.70;3.50;;;;;;;13.10;39.78;100037.15;104806;1260;60873;-70
2023/03/02 09:12:45;;;;;;;5.00;3.20;;;;;;;13.14;40.17;100030.81;104752;1260;60864;-68
2023/03/02 09:15:13;;;;;;;5.80;2.80;;;;;;;13.43;39.88;100033.15;105080;1263;71549;-70
2023/03/02 09:17:42;;;;;;;5.00;3.10;;;;;;;13.49;39.40;100034.11;105419;1260;69770;-69
2023/03/02 09:20:10;;;;;;;5.80;3.10;;;;;;;13.50;39.21;100033.55;104929;1266;72105;-65
2023/03/02 09:22:41;;;;;;;5.60;3.00;;;;;;;13.35;39.01;100030.22;104822;1259;60869;-65
2023/03/02 09:25:09;;;;;;;6.10;3.10;;;;;;;13.38;38.71;100029.70;104629;1257;60870;-65
2023/03/02 09:27:38;;;;;;;6.10;2.90;;;;;;;13.36;38.88;100026.48;104870;1254;72504;-65
2023/03/02 09:30:08;;;;;;;6.10;3.50;;;;;;;13.47;38.79;100026.83;104662;1253;69281;-65
2023/03/02 09:32:37;;;;;;;4.70;3.10;;;;;;;13.65;38.24;100030.53;104534;1254;72763;-65
2023/03/02 09:35:06;;;;;;;5.60;3.30;;;;;;;13.28;39.04;100028.91;104912;1256;60763;-65
2023/03/02 09:37:37;;;;;;;5.50;3.00;;;;;;;13.35;39.17;100029.81;104541;1257;60796;-63
2023/03/02 09:40:21;;;;;;;5.60;3.10;;;;;;;13.42;38.43;100026.86;104998;1257;72517;-64
2023/03/02 09:42:58;;;;;;;8.60;4.00;;;;;;;12.82;39.45;100027.54;105048;1252;68006;-64
2023/03/02 09:46:02;;;;;;;4.80;3.10;;;;;;;13.11;39.30;100023.56;104854;1252;72267;-63
2023/03/02 09:48:34;;;;;;;5.50;3.50;;;;;;;13.19;38.93;100023.37;104429;1254;60898;-64
2023/03/02 09:51:13;;;;;;;5.60;3.20;;;;;;;13.61;39.10;100024.00;105077;1256;60760;-65
2023/03/02 09:53:41;;;;;;;4.50;3.00;;;;;;;13.64;37.83;100020.35;104569;1272;73339;-64
2023/03/02 09:56:15;;;;;;;5.10;3.20;;;;;;;13.71;37.34;100017.88;104902;1263;68525;-64
2023/03/02 09:59:11;;;;;;;3.10;2.50;;;;;;;13.89;37.08;100011.33;105291;1256;71001;-64
2023/03/02 10:01:44;;;;;;;3.50;2.70;;;;;;;14.00;36.59;100007.61;105217;1256;60780;-67
2023/03/02 10:04:55;;;;;;;3.60;2.70;;;;;;;14.09;36.15;100005.41;104868;1266;60764;-64
2023/03/02 10:07:29;;;;;;;5.20;2.80;;;;;;;13.73;36.25;100012.86;104270;1260;72546;-64
2023/03/02 10:10:16;;;;;;;8.60;3.50;;;;;;;13.93;36.55;100008.33;104958;1258;69824;-65
2023/03/02 10:13:02;;;;;;;5.10;3.00;;;;;;;13.87;37.18;100008.64;105193;1254;72089;-64
2023/03/02 10:15:39;;;;;;;6.00;2.40;;;;;;;14.25;36.44;100007.38;104769;1252;60878;-67
2023/03/02 10:18:14;;;;;;;3.70;2.50;;;;;;;14.37;35.41;100005.15;105534;1252;60882;-66
2023/03/02 10:20:53;;;;;;;3.40;2.50;;;;;;;14.58;35.96;100010.63;105208;1254;72610;-65
2023/03/02 10:23:45;;;;;;;4.60;2.80;;;;;;;14.52;34.25;100008.95;105048;1266;68862;-67
2023/03/02 10:26:22;;;;;;;3.40;2.50;;;;;;;14.32;34.59;100010.17;104886;1257;72116;-68
2023/03/02 10:29:04;;;;;;;5.90;3.00;;;;;;;13.88;35.04;100015.11;104963;1257;61587;-66
2023/03/02 10:31:33;;;;;;;4.40;2.60;;;;;;;13.89;34.56;100009.56;105148;1252;61694;-65
2023/03/02 10:34:02;;;;;;;4.40;2.30;;;;;;;14.15;35.84;100007.53;104495;1269;72648;-66
2023/03/02 10:36:37;;;;;;;4.70;2.90;;;;;;;14.17;35.06;100007.94;104819;1254;70318;-63
2023/03/02 10:39:07;;;;;;;3.60;2.60;;;;;;;14.24;35.77;100000.92;104928;1264;71372;-64
2023/03/02 10:41:40;;;;;;;2.90;2.40;;;;;;;14.32;35.08;99996.95;104605;1257;61730;-66
2023/03/02 10:44:21;;;;;;;6.70;2.70;;;;;;;14.20;35.44;99994.23;105127;1252;61532;-66
2023/03/02 10:46:52;;;;;;;3.10;2.40;;;;;;;14.55;35.11;99997.69;104745;1260;73327;-68
2023/03/02 10:49:24;;;;;;;4.70;3.00;;;;;;;14.52;35.47;99992.59;105148;1257;69214;-67
2023/03/02 10:51:58;;;;;;;4.90;2.80;;;;;;;14.74;35.21;99988.23;104882;1270;72377;-66
2023/03/02 10:54:29;;;;;;;6.80;2.50;;;;;;;14.55;35.10;99993.32;104602;1253;61726;-67
2023/03/02 10:57:00;;;;;;;4.10;2.70;;;;;;;14.44;34.81;99991.20;104572;1271;60510;-66
2023/03/02 10:59:31;;;;;;;4.10;2.80;;;;;;;14.70;34.39;99988.05;104856;1254;73955;-67
2023/03/02 11:02:11;;;;;;;3.30;2.30;;;;;;;14.88;34.24;99984.98;104835;1256;69935;-66
2023/03/02 11:04:39;;;;;;;2.70;2.10;;;;;;;15.13;33.15;99986.27;104751;1255;71584;-65
2023/03/02 11:07:18;;;;;;;7.50;2.70;;;;;;;15.18;32.90;99988.27;104936;1260;61608;-66
2023/03/02 11:10:16;;;;;;;4.00;2.10;;;;;;;15.09;32.34;99984.70;104640;1255;61589;-65
2023/03/02 11:12:46;;;;;;;2.40;2.00;;;;;;;15.11;31.40;99984.09;104612;1256;73451;-65
2023/03/02 11:15:25;;;;;;;2.10;1.90;;;;;;;15.24;31.72;99983.01;104778;1256;68145;-65
2023/03/02 11:18:11;;;;;;;2.60;2.00;;;;;;;15.54;31.40;99978.59;105427;1253;72963;-66
2023/03/02 11:20:41;;;;;;;3.20;2.20;;;;;;;15.54;31.02;99986.38;104741;1254;61678;-66
2023/03/02 11:23:36;;;;;;;2.20;1.60;;;;;;;15.64;30.44;99982.48;105077;1257;61718;-67
2023/03/02 11:26:17;;;;;;;1.90;1.70;;;;;;;15.79;29.14;99978.81;104675;1259;72849;-66
2023/03/02 11:28:53;;;;;;;3.50;2.60;;;;;;;15.47;31.51;99990.88;105090;1254;67920;-67
2023/03/02 11:31:29;;;;;;;5.10;3.00;;;;;;;15.28;32.78;99986.31;104732;1253;72979;-67
2023/03/02 11:34:00;;;;;;;6.90;3.10;;;;;;;15.23;32.80;99982.34;104918;1254;61948;-67
2023/03/02 11:36:53;;;;;;;3.70;2.50;;;;;;;15.48;31.95;99972.95;104856;1253;61597;-67
2023/03/02 11:39:24;;;;;;;;;;;;;;;15.63;31.60;99973.14;104802;1257;72870;-66
2023/03/02 11:41:53;;;;;;;4.30;2.30;;;;;;;15.78;30.26;99971.40;104882;1257;69100;-67
2023/03/02 11:44:23;;;;;;;5.10;2.40;;;;;;;15.84;31.35;99967.54;105041;1254;72388;-66
2023/03/02 11:46:57;;;;;;;3.70;2.50;;;;;;;15.87;31.10;99967.36;105261;1255;61653;-66